Uvarovo, Russia
Current Conditions -  °F | °C
As of 8:00 AM on Saturday 20 Dec 2014 (Local Time) from UUOO Reporting Station
Overcast Overcast  
Wind Chill: 27°   Ceiling: 600
Heat Index: 34°   Visibility: 5mi
Dew Point: 32°   Wind: 9mph
Humidity: 93%   Direction: 210°SSW
Pressure: 29.71"   Gusts: 16mph
Location:  51.99°N, 42.26°E
Report Text: UUOO 200500Z 21004G07MPS 8000 OVC006 01/00 Q1006 BECMG OVC004RMK 30290148
Loading
Personal Weather Stations






























Interactive Weather Map New forecast layout! Learn more

10-Day Weather Forecast

Advertisements
Track Severe Weather on mobile